createdAt,value
2023-04-23T00:00:14.079Z,48.34
2023-04-23T00:01:14.058Z,47.65
2023-04-23T00:02:14.036Z,48.17
2023-04-23T00:03:14.126Z,46.41
2023-04-23T00:04:14.202Z,46.12
2023-04-23T00:05:14.078Z,47.97
2023-04-23T00:06:13.997Z,51.92
2023-04-23T00:07:13.974Z,47.10
2023-04-23T00:08:13.997Z,48.80
2023-04-23T00:09:13.956Z,48.52
2023-04-23T00:10:13.944Z,48.31
2023-04-23T00:11:13.950Z,45.27
2023-04-23T00:12:13.958Z,47.17
2023-04-23T00:13:13.923Z,46.74
2023-04-23T00:14:13.906Z,46.44
2023-04-23T00:15:13.922Z,46.58
2023-04-23T00:16:13.933Z,46.30
2023-04-23T00:17:13.877Z,45.79
2023-04-23T00:18:13.879Z,48.45
2023-04-23T00:19:13.866Z,48.15
2023-04-23T00:20:13.824Z,46.17
2023-04-23T00:21:13.816Z,46.97
2023-04-23T00:22:13.841Z,46.98
2023-04-23T00:23:13.810Z,47.24
2023-04-23T00:24:13.798Z,49.69
2023-04-23T00:25:13.779Z,48.28
2023-04-23T00:26:13.771Z,46.65
2023-04-23T00:27:13.759Z,48.94
2023-04-23T00:28:13.770Z,45.45
2023-04-23T00:29:13.737Z,46.62
2023-04-23T00:30:13.718Z,49.13
2023-04-23T00:31:13.752Z,48.80
2023-04-23T00:32:13.676Z,46.97
2023-04-23T00:33:13.708Z,48.72
2023-04-23T00:34:13.712Z,47.64
2023-04-23T00:35:13.666Z,47.53
2023-04-23T00:36:13.633Z,47.59
2023-04-23T00:37:13.665Z,48.55
2023-04-23T00:38:13.673Z,49.49
2023-04-23T00:39:13.585Z,50.80
2023-04-23T00:40:13.654Z,54.03
2023-04-23T00:41:13.612Z,49.18
2023-04-23T00:42:13.582Z,46.38
2023-04-23T00:43:13.606Z,49.13
2023-04-23T00:44:13.584Z,47.72
2023-04-23T00:45:13.568Z,49.18
2023-04-23T00:46:13.572Z,49.61
2023-04-23T00:47:13.555Z,48.54
2023-04-23T00:48:13.525Z,50.28
2023-04-23T00:49:13.517Z,51.24
2023-04-23T00:50:13.541Z,46.88
2023-04-23T00:51:13.488Z,50.01
2023-04-23T00:52:13.474Z,49.64
2023-04-23T00:53:13.460Z,49.06
2023-04-23T00:54:13.469Z,49.73
2023-04-23T00:55:13.429Z,51.60
2023-04-23T00:56:13.462Z,50.45
2023-04-23T00:57:13.417Z,49.51
2023-04-23T00:58:13.421Z,49.42
2023-04-23T00:59:13.392Z,48.27
2023-04-23T01:00:13.406Z,51.56
2023-04-23T01:01:13.439Z,48.66
2023-04-23T01:02:13.403Z,47.89
2023-04-23T01:03:13.621Z,51.69
2023-04-23T01:04:13.377Z,48.43
2023-04-23T01:05:13.374Z,50.18
2023-04-23T01:06:13.350Z,50.90
2023-04-23T01:07:13.304Z,52.64
2023-04-23T01:08:13.274Z,51.88
2023-04-23T01:09:13.275Z,52.05
2023-04-23T01:10:13.280Z,49.87
2023-04-23T01:11:13.268Z,45.58
2023-04-23T01:12:13.236Z,47.68
2023-04-23T01:13:13.232Z,45.49
2023-04-23T01:14:13.247Z,45.79
2023-04-23T01:15:13.249Z,48.01
2023-04-23T01:16:13.207Z,50.19
2023-04-23T01:17:13.184Z,46.59
2023-04-23T01:18:13.233Z,50.95
2023-04-23T01:19:13.169Z,47.36
2023-04-23T01:20:13.194Z,49.47
2023-04-23T01:21:13.166Z,52.28
2023-04-23T01:22:13.136Z,51.79
2023-04-23T01:23:13.117Z,47.32
2023-04-23T01:24:13.132Z,47.28
2023-04-23T01:25:13.121Z,49.55
2023-04-23T01:26:13.093Z,49.81
2023-04-23T01:27:13.102Z,51.74
2023-04-23T01:28:13.076Z,45.13
2023-04-23T01:29:13.089Z,47.30
2023-04-23T01:30:13.050Z,50.36
2023-04-23T01:31:14.079Z,48.26
2023-04-23T01:32:13.013Z,50.69
2023-04-23T01:33:13.015Z,46.53
2023-04-23T01:34:13.038Z,52.38
2023-04-23T01:35:12.976Z,48.17
2023-04-23T01:36:13.019Z,45.25
2023-04-23T01:37:12.977Z,45.95
2023-04-23T01:38:12.953Z,50.28
2023-04-23T01:39:12.938Z,48.76
2023-04-23T01:40:12.968Z,45.71
2023-04-23T01:41:12.933Z,47.95
2023-04-23T01:42:12.893Z,51.00
2023-04-23T01:43:12.902Z,49.92
2023-04-23T01:44:12.897Z,47.36
2023-04-23T01:45:12.877Z,48.64
2023-04-23T01:46:12.886Z,49.98
2023-04-23T01:47:12.841Z,45.87
2023-04-23T01:48:13.857Z,45.57
2023-04-23T01:49:12.840Z,46.72
2023-04-23T01:50:12.808Z,50.93
2023-04-23T01:51:12.823Z,48.65
2023-04-23T01:52:12.790Z,43.89
2023-04-23T01:53:12.788Z,46.55
2023-04-23T01:54:12.784Z,46.37
2023-04-23T01:55:12.781Z,48.64
2023-04-23T01:56:12.745Z,48.50
2023-04-23T01:57:12.738Z,47.01
2023-04-23T01:58:12.757Z,45.47
2023-04-23T01:59:12.691Z,43.97
2023-04-23T02:00:12.745Z,43.96
2023-04-23T02:01:12.708Z,46.18
2023-04-23T02:02:12.687Z,51.68
2023-04-23T02:03:12.791Z,49.96
2023-04-23T02:04:12.749Z,51.94
2023-04-23T02:05:12.675Z,50.32
2023-04-23T02:06:12.628Z,49.34
2023-04-23T02:07:12.643Z,50.05
2023-04-23T02:08:12.598Z,49.61
2023-04-23T02:09:12.597Z,48.96
2023-04-23T02:10:12.635Z,47.37
2023-04-23T02:11:12.628Z,51.18
2023-04-23T02:12:12.555Z,49.96
2023-04-23T02:13:12.550Z,51.25
2023-04-23T02:14:12.572Z,50.51
2023-04-23T02:15:12.552Z,50.47
2023-04-23T02:16:12.571Z,52.69
2023-04-23T02:17:12.521Z,51.84
2023-04-23T02:18:12.516Z,52.95
2023-04-23T02:19:14.697Z,51.82
2023-04-23T02:20:12.473Z,52.70
2023-04-23T02:21:12.466Z,52.38
2023-04-23T02:22:12.463Z,52.77
2023-04-23T02:23:12.442Z,52.60
2023-04-23T02:24:12.454Z,51.05
2023-04-23T02:25:12.424Z,50.36
2023-04-23T02:26:12.391Z,50.38
2023-04-23T02:27:12.424Z,53.15
2023-04-23T02:28:12.393Z,51.03
2023-04-23T02:29:12.380Z,53.11
2023-04-23T02:30:12.357Z,50.70
2023-04-23T02:31:12.370Z,50.83
2023-04-23T02:32:12.327Z,55.32
2023-04-23T02:33:12.336Z,62.26
2023-04-23T02:34:12.330Z,62.46
2023-04-23T02:35:12.303Z,64.43
2023-04-23T02:36:12.292Z,62.82
2023-04-23T02:37:12.270Z,64.28
2023-04-23T02:38:12.296Z,64.82
2023-04-23T02:39:12.237Z,63.14
2023-04-23T02:40:12.258Z,58.77
2023-04-23T02:41:12.244Z,57.65
2023-04-23T02:42:12.211Z,56.37
2023-04-23T02:43:12.232Z,59.54
2023-04-23T02:44:12.208Z,61.03
2023-04-23T02:45:12.216Z,56.10
2023-04-23T02:46:12.162Z,55.60
2023-04-23T02:47:12.173Z,59.00
2023-04-23T02:48:12.191Z,52.31
2023-04-23T02:49:12.150Z,51.41
2023-04-23T02:50:12.116Z,51.78
2023-04-23T02:51:12.135Z,51.24
2023-04-23T02:52:12.182Z,46.77
2023-04-23T02:53:12.098Z,47.12
2023-04-23T02:54:12.092Z,45.47
2023-04-23T02:55:12.081Z,48.84
2023-04-23T02:56:12.042Z,54.24
2023-04-23T02:57:12.038Z,50.32
2023-04-23T02:58:12.067Z,53.60
2023-04-23T02:59:12.023Z,54.13
2023-04-23T03:00:12.010Z,52.01
2023-04-23T03:01:12.010Z,51.89
2023-04-23T03:02:12.085Z,54.45
2023-04-23T03:03:12.868Z,51.27
2023-04-23T03:04:13.105Z,50.97
2023-04-23T03:05:11.958Z,54.38
2023-04-23T03:06:11.941Z,54.83
2023-04-23T03:07:11.934Z,53.79
2023-04-23T03:08:11.944Z,51.62
2023-04-23T03:09:11.940Z,51.29
2023-04-23T03:10:11.886Z,50.95
2023-04-23T03:11:11.913Z,54.11
2023-04-23T03:12:11.878Z,53.77
2023-04-23T03:13:11.884Z,52.88
2023-04-23T03:14:11.881Z,50.07
2023-04-23T03:15:11.849Z,50.53
2023-04-23T03:16:11.847Z,50.42
2023-04-23T03:17:11.821Z,49.75
2023-04-23T03:18:11.840Z,50.54
2023-04-23T03:19:11.809Z,50.72
2023-04-23T03:20:11.813Z,49.29
2023-04-23T03:21:11.786Z,51.31
2023-04-23T03:22:11.813Z,49.08
2023-04-23T03:23:11.787Z,52.32
2023-04-23T03:24:11.743Z,53.60
2023-04-23T03:25:11.728Z,51.88
2023-04-23T03:26:11.745Z,50.27
2023-04-23T03:27:11.718Z,51.04
2023-04-23T03:28:11.716Z,50.47
2023-04-23T03:29:11.720Z,49.61
2023-04-23T03:30:11.670Z,51.04
2023-04-23T03:31:11.694Z,49.63
2023-04-23T03:32:11.717Z,53.50
2023-04-23T03:33:11.652Z,56.12
2023-04-23T03:34:11.626Z,52.04
2023-04-23T03:35:11.648Z,51.82
2023-04-23T03:36:11.606Z,50.65
2023-04-23T03:37:11.611Z,54.19
2023-04-23T03:38:11.618Z,50.45
2023-04-23T03:39:12.591Z,52.45
2023-04-23T03:40:11.558Z,52.72
2023-04-23T03:41:11.578Z,53.04
2023-04-23T03:42:11.555Z,51.89
2023-04-23T03:43:11.505Z,51.27
2023-04-23T03:44:11.542Z,52.47
2023-04-23T03:45:11.517Z,52.87
2023-04-23T03:46:11.524Z,49.02
2023-04-23T03:47:11.514Z,46.85
2023-04-23T03:48:11.503Z,48.99
2023-04-23T03:49:11.478Z,53.00
2023-04-23T03:50:11.440Z,52.73
2023-04-23T03:51:11.445Z,49.34
2023-04-23T03:52:11.458Z,47.36
2023-04-23T03:53:11.475Z,49.75
2023-04-23T03:54:11.398Z,49.43
2023-04-23T03:55:11.404Z,50.69
2023-04-23T03:56:11.399Z,50.02
2023-04-23T03:57:11.374Z,50.66
2023-04-23T03:58:11.369Z,48.93
2023-04-23T03:59:11.386Z,49.37
2023-04-23T04:00:11.329Z,46.29
2023-04-23T04:01:11.317Z,50.22
2023-04-23T04:02:11.455Z,50.15
2023-04-23T04:03:11.433Z,53.13
2023-04-23T04:04:11.708Z,50.65
2023-04-23T04:05:11.639Z,48.27
2023-04-23T04:06:11.285Z,53.83
2023-04-23T04:07:11.244Z,47.86
2023-04-23T04:08:11.277Z,49.23
2023-04-23T04:09:11.245Z,47.93
2023-04-23T04:10:11.229Z,47.73
2023-04-23T04:11:11.209Z,45.64
2023-04-23T04:12:11.235Z,47.82
2023-04-23T04:13:11.195Z,49.63
2023-04-23T04:14:11.165Z,46.46
2023-04-23T04:15:11.188Z,49.45
2023-04-23T04:16:11.177Z,46.28
2023-04-23T04:17:11.168Z,50.56
2023-04-23T04:18:11.149Z,48.54
2023-04-23T04:19:11.126Z,48.92
2023-04-23T04:20:11.160Z,57.47
2023-04-23T04:21:11.108Z,51.03
2023-04-23T04:22:11.105Z,53.28
2023-04-23T04:23:11.105Z,50.84
2023-04-23T04:24:11.052Z,53.25
2023-04-23T04:25:11.055Z,50.47
2023-04-23T04:26:11.056Z,53.46
2023-04-23T04:27:11.049Z,50.52
2023-04-23T04:28:11.019Z,51.70
2023-04-23T04:29:11.025Z,51.77
2023-04-23T04:30:11.046Z,44.99
2023-04-23T04:31:11.001Z,50.29
2023-04-23T04:32:10.987Z,51.85
2023-04-23T04:33:10.968Z,52.06
2023-04-23T04:34:10.940Z,52.08
2023-04-23T04:35:10.933Z,51.71
2023-04-23T04:36:10.946Z,52.71
2023-04-23T04:37:10.940Z,52.40
2023-04-23T04:38:10.916Z,52.85
2023-04-23T04:39:10.924Z,49.09
2023-04-23T04:40:10.862Z,53.26
2023-04-23T04:41:10.861Z,52.01
2023-04-23T04:42:10.882Z,54.47
2023-04-23T04:43:10.843Z,55.06
2023-04-23T04:44:10.823Z,53.02
2023-04-23T04:45:11.818Z,51.46
2023-04-23T04:46:10.813Z,49.05
2023-04-23T04:47:10.870Z,52.45
2023-04-23T04:48:10.811Z,51.46
2023-04-23T04:49:10.754Z,54.70
2023-04-23T04:50:11.779Z,52.24
2023-04-23T04:51:10.742Z,53.18
2023-04-23T04:52:10.798Z,49.48
2023-04-23T04:53:10.812Z,52.59
2023-04-23T04:54:10.717Z,54.34
2023-04-23T04:55:11.720Z,50.75
2023-04-23T04:56:10.682Z,53.46
2023-04-23T04:57:10.680Z,51.00
2023-04-23T04:58:10.706Z,52.51
2023-04-23T04:59:10.677Z,52.15
2023-04-23T05:00:10.626Z,56.40
2023-04-23T05:01:10.725Z,53.88
2023-04-23T05:02:10.728Z,55.22
2023-04-23T05:03:13.427Z,56.48
2023-04-23T05:04:11.779Z,55.26
2023-04-23T05:05:10.598Z,51.93
2023-04-23T05:06:10.559Z,52.65
2023-04-23T05:07:10.564Z,47.86
2023-04-23T05:08:10.600Z,49.01
2023-04-23T05:09:10.550Z,47.55
2023-04-23T05:10:10.534Z,47.21
2023-04-23T05:11:10.550Z,54.92
2023-04-23T05:12:10.500Z,50.85
2023-04-23T05:13:10.513Z,49.92
2023-04-23T05:14:10.516Z,53.33
2023-04-23T05:15:10.498Z,52.16
2023-04-23T05:16:10.487Z,51.72
2023-04-23T05:17:10.460Z,51.34
2023-04-23T05:18:10.455Z,53.92
2023-04-23T05:19:10.427Z,48.48
2023-04-23T05:20:10.458Z,52.72
2023-04-23T05:21:10.405Z,47.93
2023-04-23T05:22:10.376Z,48.81
2023-04-23T05:23:10.392Z,51.21
2023-04-23T05:24:10.412Z,50.05
2023-04-23T05:25:10.375Z,54.32
2023-04-23T05:26:10.345Z,53.59
2023-04-23T05:27:10.336Z,52.50
2023-04-23T05:28:10.357Z,49.62
2023-04-23T05:29:10.333Z,50.07
2023-04-23T05:30:10.304Z,50.76
2023-04-23T05:31:10.293Z,50.62
2023-04-23T05:32:10.355Z,52.39
2023-04-23T05:33:10.302Z,52.68
2023-04-23T05:34:10.252Z,52.67
2023-04-23T05:35:10.276Z,49.89
2023-04-23T05:36:10.235Z,51.02
2023-04-23T05:37:10.225Z,53.84
2023-04-23T05:38:10.260Z,54.02
2023-04-23T05:39:10.216Z,51.54
2023-04-23T05:40:10.177Z,48.58
2023-04-23T05:41:10.187Z,50.52
2023-04-23T05:42:10.190Z,52.97
2023-04-23T05:43:10.160Z,52.97
2023-04-23T05:44:10.172Z,54.43
2023-04-23T05:45:10.165Z,54.35
2023-04-23T05:46:10.136Z,52.15
2023-04-23T05:47:10.135Z,49.85
2023-04-23T05:48:10.141Z,52.74
2023-04-23T05:49:10.100Z,55.02
2023-04-23T05:50:10.100Z,49.75
2023-04-23T05:51:10.084Z,48.45
2023-04-23T05:52:10.053Z,50.79
2023-04-23T05:53:10.058Z,51.69
2023-04-23T05:54:10.057Z,51.12
2023-04-23T05:55:10.196Z,51.82
2023-04-23T05:56:09.995Z,49.69
2023-04-23T05:57:10.018Z,51.50
2023-04-23T05:58:09.999Z,52.27
2023-04-23T05:59:09.984Z,51.36
2023-04-23T06:00:09.980Z,53.09
2023-04-23T06:01:09.940Z,53.12
2023-04-23T06:02:10.051Z,50.93
2023-04-23T06:03:10.006Z,49.94
2023-04-23T06:04:10.152Z,49.52
2023-04-23T06:05:10.221Z,52.43
2023-04-23T06:06:09.927Z,52.56
2023-04-23T06:07:09.884Z,52.60
2023-04-23T06:08:09.878Z,52.03
2023-04-23T06:09:09.867Z,49.36
2023-04-23T06:10:09.847Z,50.48
2023-04-23T06:11:09.835Z,48.63
2023-04-23T06:12:09.861Z,50.48
2023-04-23T06:13:09.807Z,52.11
2023-04-23T06:14:09.805Z,50.62
2023-04-23T06:15:09.832Z,52.77
2023-04-23T06:16:09.821Z,53.69
2023-04-23T06:17:09.772Z,48.02
2023-04-23T06:18:09.817Z,48.95
2023-04-23T06:19:09.749Z,51.80
2023-04-23T06:20:09.738Z,50.57
2023-04-23T06:21:09.718Z,49.89
2023-04-23T06:22:09.726Z,48.10
2023-04-23T06:23:09.695Z,49.25
2023-04-23T06:24:09.692Z,49.80
2023-04-23T06:25:09.677Z,47.30
2023-04-23T06:26:09.644Z,48.16
2023-04-23T06:27:09.660Z,50.57
2023-04-23T06:28:09.645Z,49.45
2023-04-23T06:29:09.626Z,49.63
2023-04-23T06:30:09.601Z,53.02
2023-04-23T06:31:09.633Z,50.12
2023-04-23T06:32:09.643Z,49.03
2023-04-23T06:33:09.599Z,50.61
2023-04-23T06:34:09.571Z,51.44
2023-04-23T06:35:09.613Z,49.18
2023-04-23T06:36:09.560Z,50.70
2023-04-23T06:37:09.549Z,51.25
2023-04-23T06:38:09.502Z,52.65
2023-04-23T06:39:09.523Z,51.56
2023-04-23T06:40:09.523Z,49.46
2023-04-23T06:41:09.495Z,49.85
2023-04-23T06:42:09.483Z,46.01
2023-04-23T06:43:09.471Z,46.79
2023-04-23T06:44:09.446Z,58.32
2023-04-23T06:45:09.495Z,51.09
2023-04-23T06:46:09.452Z,51.03
2023-04-23T06:47:09.494Z,51.08
2023-04-23T06:48:09.469Z,46.90
2023-04-23T06:49:09.584Z,52.65
2023-04-23T06:50:09.371Z,56.53
2023-04-23T06:51:09.380Z,54.63
2023-04-23T06:52:09.414Z,51.82
2023-04-23T06:53:09.367Z,48.71
2023-04-23T06:54:09.326Z,50.79
2023-04-23T06:55:09.364Z,49.93
2023-04-23T06:56:09.313Z,53.84
2023-04-23T06:57:09.308Z,56.59
2023-04-23T06:58:09.340Z,56.58
2023-04-23T06:59:09.275Z,54.15
2023-04-23T07:00:09.249Z,52.43
2023-04-23T07:01:09.339Z,51.91
2023-04-23T07:02:09.310Z,55.27
2023-04-23T07:03:09.380Z,55.04
2023-04-23T07:04:09.248Z,51.94
2023-04-23T07:05:09.228Z,50.77
2023-04-23T07:06:09.302Z,50.13
2023-04-23T07:07:09.199Z,51.24
2023-04-23T07:08:09.193Z,54.57
2023-04-23T07:09:09.184Z,50.73
2023-04-23T07:10:09.198Z,51.16
2023-04-23T07:11:09.168Z,50.48
2023-04-23T07:12:09.179Z,51.74
2023-04-23T07:13:10.140Z,52.19
2023-04-23T07:14:09.152Z,54.10
2023-04-23T07:15:09.272Z,50.39
2023-04-23T07:16:09.156Z,54.77
2023-04-23T07:17:09.168Z,53.17
2023-04-23T07:18:09.086Z,54.78
2023-04-23T07:19:09.103Z,53.82
2023-04-23T07:20:09.086Z,53.21
2023-04-23T07:21:09.067Z,55.59
2023-04-23T07:22:09.070Z,57.64
2023-04-23T07:23:09.049Z,57.17
2023-04-23T07:24:09.049Z,55.92
2023-04-23T07:25:09.021Z,56.45
2023-04-23T07:26:09.038Z,52.50
2023-04-23T07:27:08.967Z,57.06
2023-04-23T07:28:08.999Z,55.19
2023-04-23T07:29:09.085Z,60.85
2023-04-23T07:30:08.936Z,58.05
2023-04-23T07:31:08.937Z,53.88
2023-04-23T07:32:08.998Z,57.65
2023-04-23T07:33:08.999Z,59.00
2023-04-23T07:34:08.915Z,51.85
2023-04-23T07:35:08.922Z,52.46
2023-04-23T07:36:08.899Z,53.12
2023-04-23T07:37:08.876Z,51.72
2023-04-23T07:38:08.875Z,50.73
2023-04-23T07:39:08.856Z,56.46
2023-04-23T07:40:08.865Z,50.23
2023-04-23T07:41:08.853Z,54.01
2023-04-23T07:42:08.910Z,57.97
2023-04-23T07:43:08.834Z,52.16
2023-04-23T07:44:08.785Z,55.91
2023-04-23T07:45:08.800Z,54.48
2023-04-23T07:46:08.842Z,56.24
2023-04-23T07:47:08.793Z,55.02
2023-04-23T07:48:08.752Z,52.29
2023-04-23T07:49:08.755Z,51.02
2023-04-23T07:50:08.769Z,49.13
2023-04-23T07:51:08.707Z,55.81
2023-04-23T07:52:08.745Z,55.01
2023-04-23T07:53:08.726Z,53.75
2023-04-23T07:54:08.687Z,54.59
2023-04-23T07:55:08.677Z,57.64
2023-04-23T07:56:08.695Z,64.49
2023-04-23T07:57:08.666Z,55.92
2023-04-23T07:58:08.665Z,56.78
2023-04-23T07:59:08.662Z,57.78
2023-04-23T08:00:08.628Z,54.37
2023-04-23T08:01:08.648Z,55.73
2023-04-23T08:02:08.758Z,59.62
2023-04-23T08:03:08.724Z,56.77
2023-04-23T08:04:08.873Z,51.74
2023-04-23T08:05:08.705Z,57.24
2023-04-23T08:06:08.590Z,54.83
2023-04-23T08:07:08.578Z,54.07
2023-04-23T08:08:08.562Z,53.76
2023-04-23T08:09:08.544Z,58.28
2023-04-23T08:10:08.545Z,55.13
2023-04-23T08:11:08.549Z,56.21
2023-04-23T08:12:08.482Z,55.06
2023-04-23T08:13:08.505Z,55.27
2023-04-23T08:14:08.509Z,57.36
2023-04-23T08:15:08.479Z,55.12
2023-04-23T08:16:08.519Z,52.71
2023-04-23T08:17:08.455Z,54.18
2023-04-23T08:18:08.412Z,62.24
2023-04-23T08:19:08.444Z,56.62
2023-04-23T08:20:08.439Z,54.89
2023-04-23T08:21:08.393Z,55.98
2023-04-23T08:22:08.375Z,54.62
2023-04-23T08:23:08.406Z,53.15
2023-04-23T08:24:08.362Z,58.42
2023-04-23T08:25:08.344Z,53.32
2023-04-23T08:26:08.379Z,55.69
2023-04-23T08:27:08.351Z,55.56
2023-04-23T08:28:08.331Z,53.52
2023-04-23T08:29:10.165Z,52.96
2023-04-23T08:30:08.326Z,53.16
2023-04-23T08:31:22.773Z,52.92
2023-04-23T08:32:10.391Z,52.46
2023-04-23T08:33:08.304Z,53.68
2023-04-23T08:34:08.362Z,53.30
2023-04-23T08:35:08.274Z,56.24
2023-04-23T08:36:08.295Z,52.95
2023-04-23T08:37:13.898Z,61.77
2023-04-23T08:38:10.201Z,55.34
2023-04-23T08:39:08.215Z,55.67
2023-04-23T08:40:08.217Z,52.63
2023-04-23T08:41:08.198Z,55.67
2023-04-23T08:42:08.183Z,52.31
2023-04-23T08:43:08.159Z,50.84
2023-04-23T08:44:08.171Z,58.64
2023-04-23T08:45:08.165Z,53.90
2023-04-23T08:46:08.133Z,55.62
2023-04-23T08:47:08.159Z,54.23
2023-04-23T08:48:08.127Z,52.03
2023-04-23T08:49:08.092Z,51.43
2023-04-23T08:50:08.139Z,51.94
2023-04-23T08:51:08.083Z,54.68
2023-04-23T08:52:08.045Z,53.07
2023-04-23T08:53:08.047Z,54.38
2023-04-23T08:54:08.073Z,52.94
2023-04-23T08:55:08.053Z,53.55
2023-04-23T08:56:08.043Z,58.13
2023-04-23T08:57:08.014Z,54.29
2023-04-23T08:58:07.982Z,56.10
2023-04-23T08:59:08.001Z,54.64
2023-04-23T09:00:08.036Z,59.41
2023-04-23T09:01:07.988Z,53.69
2023-04-23T09:02:08.388Z,51.22
2023-04-23T09:03:08.126Z,54.89
2023-04-23T09:04:07.938Z,53.63
2023-04-23T09:05:07.932Z,53.84
2023-04-23T09:06:07.951Z,54.95
2023-04-23T09:07:07.924Z,54.10
2023-04-23T09:08:07.904Z,56.72
2023-04-23T09:09:07.891Z,56.28
2023-04-23T09:10:07.901Z,58.86
2023-04-23T09:11:07.842Z,55.90
2023-04-23T09:12:07.889Z,57.65
2023-04-23T09:13:07.878Z,59.05
2023-04-23T09:14:07.826Z,56.94
2023-04-23T09:15:07.834Z,53.92
2023-04-23T09:16:07.945Z,55.31
2023-04-23T09:17:08.830Z,58.12
2023-04-23T09:18:07.878Z,55.85
2023-04-23T09:19:07.809Z,62.03
2023-04-23T09:20:07.768Z,57.73
2023-04-23T09:21:07.773Z,57.73
2023-04-23T09:22:07.768Z,59.39
2023-04-23T09:23:07.772Z,59.87
2023-04-23T09:24:07.717Z,58.87
2023-04-23T09:25:07.730Z,56.31
2023-04-23T09:26:07.729Z,55.59
2023-04-23T09:27:07.710Z,60.22
2023-04-23T09:28:07.729Z,58.20
2023-04-23T09:29:07.692Z,59.59
2023-04-23T09:30:07.675Z,61.07
2023-04-23T09:31:07.692Z,57.85
2023-04-23T09:32:07.747Z,59.35
2023-04-23T09:33:07.661Z,60.27
2023-04-23T09:34:07.616Z,58.20
2023-04-23T09:35:07.648Z,58.00
2023-04-23T09:36:07.586Z,60.88
2023-04-23T09:37:07.593Z,58.63
2023-04-23T09:38:07.637Z,57.53
2023-04-23T09:39:07.568Z,64.62
2023-04-23T09:40:07.587Z,58.65
2023-04-23T09:41:07.539Z,56.64
2023-04-23T09:42:07.584Z,55.92
2023-04-23T09:43:07.599Z,57.69
2023-04-23T09:44:07.511Z,56.32
2023-04-23T09:45:07.539Z,56.05
2023-04-23T09:46:07.522Z,58.21
2023-04-23T09:47:07.506Z,56.05
2023-04-23T09:48:07.515Z,56.80
2023-04-23T09:49:07.457Z,58.33
2023-04-23T09:50:07.480Z,58.31
2023-04-23T09:51:07.443Z,58.58
2023-04-23T09:52:07.450Z,58.85
2023-04-23T09:53:07.445Z,58.37
2023-04-23T09:54:07.425Z,54.82
2023-04-23T09:55:07.412Z,57.76
2023-04-23T09:56:07.418Z,57.73
2023-04-23T09:57:07.393Z,56.84
2023-04-23T09:58:07.346Z,56.96
2023-04-23T09:59:07.405Z,57.42
2023-04-23T10:00:14.283Z,60.06
2023-04-23T10:01:09.404Z,56.14
2023-04-23T10:02:07.414Z,57.24
2023-04-23T10:03:07.441Z,54.63
2023-04-23T10:04:07.443Z,55.01
2023-04-23T10:05:21.747Z,55.15
2023-04-23T10:06:17.306Z,56.93
2023-04-23T10:08:10.329Z,56.50
2023-04-23T10:09:07.252Z,57.62
2023-04-23T10:10:07.243Z,56.33
2023-04-23T10:11:20.457Z,59.07
2023-04-23T10:12:20.564Z,57.05
2023-04-23T10:13:09.246Z,55.19
2023-04-23T10:14:07.176Z,55.76
2023-04-23T10:15:07.184Z,53.53
2023-04-23T10:16:18.123Z,55.17
2023-04-23T10:17:09.170Z,61.15
2023-04-23T10:18:07.192Z,56.17
2023-04-23T10:19:07.144Z,54.81
2023-04-23T10:20:07.136Z,55.36
2023-04-23T10:21:07.117Z,55.72
2023-04-23T10:22:18.592Z,57.09
2023-04-23T10:23:09.221Z,55.94
2023-04-23T10:24:07.060Z,55.54
2023-04-23T10:25:07.124Z,57.18
2023-04-23T10:26:07.093Z,56.09
2023-04-23T10:27:14.267Z,56.91
2023-04-23T10:28:09.034Z,56.30
2023-04-23T10:29:07.041Z,57.33
2023-04-23T10:30:07.048Z,54.95
2023-04-23T10:31:07.030Z,54.43
2023-04-23T10:32:07.031Z,52.40
2023-04-23T10:33:15.799Z,55.99
2023-04-23T10:34:08.979Z,55.98
2023-04-23T10:35:06.966Z,54.07
2023-04-23T10:36:06.958Z,54.58
2023-04-23T10:37:06.967Z,52.42
2023-04-23T10:38:06.929Z,55.70
2023-04-23T10:39:06.935Z,54.76
2023-04-23T10:40:06.964Z,57.60
2023-04-23T10:41:06.884Z,53.51
2023-04-23T10:42:06.901Z,57.22
2023-04-23T10:43:06.885Z,55.65
2023-04-23T10:44:06.922Z,57.42
2023-04-23T10:45:16.591Z,54.60
2023-04-23T10:46:08.987Z,54.89
2023-04-23T10:47:06.835Z,53.36
2023-04-23T10:48:06.842Z,55.24
2023-04-23T10:49:06.800Z,56.10
2023-04-23T10:50:06.857Z,56.24
2023-04-23T10:51:35.443Z,54.76
2023-04-23T10:52:19.550Z,52.10
2023-04-23T10:53:08.811Z,57.32
2023-04-23T10:54:06.794Z,57.66
2023-04-23T10:55:06.746Z,56.28
2023-04-23T10:56:38.700Z,54.45
2023-04-23T10:57:06.762Z,55.91
2023-04-23T10:58:06.754Z,59.75
2023-04-23T10:59:07.727Z,57.99
2023-04-23T11:00:06.731Z,58.67
2023-04-23T11:01:06.727Z,57.92
2023-04-23T11:02:06.859Z,57.66
2023-04-23T11:03:07.804Z,59.27
2023-04-23T11:04:07.911Z,57.89
2023-04-23T11:05:06.751Z,56.46
2023-04-23T11:06:06.680Z,55.84
2023-04-23T11:07:06.636Z,56.03
2023-04-23T11:08:18.216Z,54.84
2023-04-23T11:09:08.683Z,55.86
2023-04-23T11:10:06.603Z,56.35
2023-04-23T11:11:06.602Z,57.22
2023-04-23T11:12:06.621Z,58.14
2023-04-23T11:13:06.697Z,57.04
2023-04-23T11:14:06.601Z,60.33
2023-04-23T11:15:06.603Z,56.59
2023-04-23T11:16:06.573Z,57.28
2023-04-23T11:17:06.578Z,56.40
2023-04-23T11:18:06.593Z,58.08
2023-04-23T11:19:06.541Z,57.02
2023-04-23T11:20:06.539Z,58.14
2023-04-23T11:21:06.524Z,56.97
2023-04-23T11:22:06.527Z,60.07
2023-04-23T11:23:06.481Z,59.36
2023-04-23T11:24:06.502Z,58.98
2023-04-23T11:25:06.466Z,58.26
2023-04-23T11:26:06.521Z,56.61
2023-04-23T11:27:06.417Z,55.01
2023-04-23T11:28:06.459Z,59.23
2023-04-23T11:29:06.440Z,57.58
2023-04-23T11:30:06.441Z,56.77
2023-04-23T11:31:07.367Z,57.85
2023-04-23T11:32:06.488Z,55.75
2023-04-23T11:33:06.553Z,55.48
2023-04-23T11:34:06.345Z,54.83
2023-04-23T11:35:06.356Z,57.25
2023-04-23T11:36:06.319Z,56.53
2023-04-23T11:37:06.342Z,57.62
2023-04-23T11:38:06.507Z,57.51
2023-04-23T11:39:06.328Z,62.53
2023-04-23T11:40:06.298Z,60.64
2023-04-23T11:41:06.358Z,62.38
2023-04-23T11:42:06.309Z,59.99
2023-04-23T11:43:06.265Z,58.93
2023-04-23T11:44:06.245Z,59.87
2023-04-23T11:45:06.247Z,57.86
2023-04-23T11:46:06.301Z,60.60
2023-04-23T11:47:06.213Z,60.73
2023-04-23T11:48:06.288Z,59.70
2023-04-23T11:49:06.199Z,57.22
2023-04-23T11:50:06.205Z,58.96
2023-04-23T11:51:06.154Z,55.62
2023-04-23T11:52:06.147Z,60.74
2023-04-23T11:53:06.163Z,56.74
2023-04-23T11:54:06.129Z,59.27
2023-04-23T11:55:06.111Z,60.56
2023-04-23T11:56:06.115Z,58.49
2023-04-23T11:57:06.104Z,59.03
2023-04-23T11:58:06.083Z,56.38
2023-04-23T11:59:06.099Z,59.00
2023-04-23T12:00:06.074Z,55.58
2023-04-23T12:01:06.052Z,58.21
2023-04-23T12:02:06.108Z,57.44
2023-04-23T12:03:06.269Z,58.98
2023-04-23T12:04:06.237Z,62.27
2023-04-23T12:05:06.048Z,58.67
2023-04-23T12:06:06.029Z,54.66
2023-04-23T12:07:16.000Z,56.46
2023-04-23T12:08:07.968Z,58.88
2023-04-23T12:09:05.966Z,58.14
2023-04-23T12:10:05.964Z,60.10
2023-04-23T12:11:05.928Z,56.14
2023-04-23T12:12:05.933Z,55.91
2023-04-23T12:13:05.942Z,57.43
2023-04-23T12:14:05.950Z,56.10
2023-04-23T12:15:05.897Z,55.29
2023-04-23T12:16:05.972Z,59.30
2023-04-23T12:17:05.888Z,55.96
2023-04-23T12:18:05.855Z,59.19
2023-04-23T12:19:05.896Z,58.98
2023-04-23T12:20:05.838Z,56.53
2023-04-23T12:21:05.849Z,57.02
2023-04-23T12:22:05.848Z,56.03
2023-04-23T12:23:05.836Z,58.20
2023-04-23T12:24:05.813Z,54.87
2023-04-23T12:25:05.809Z,59.53
2023-04-23T12:26:05.798Z,57.59
2023-04-23T12:27:06.060Z,57.37
2023-04-23T12:28:05.778Z,56.16
2023-04-23T12:29:05.775Z,57.31
2023-04-23T12:30:07.400Z,54.96
2023-04-23T12:31:06.752Z,55.13
2023-04-23T12:32:05.707Z,55.83
2023-04-23T12:33:05.743Z,58.34
2023-04-23T12:34:05.778Z,55.43
2023-04-23T12:35:05.729Z,57.07
2023-04-23T12:36:05.716Z,58.97
2023-04-23T12:37:05.694Z,58.07
2023-04-23T12:38:05.687Z,58.61
2023-04-23T12:39:05.644Z,59.32
2023-04-23T12:40:05.622Z,59.23
2023-04-23T12:41:05.595Z,59.88
2023-04-23T12:42:06.668Z,61.02
2023-04-23T12:43:05.635Z,59.65
2023-04-23T12:44:05.572Z,58.17
2023-04-23T12:45:05.570Z,62.79
2023-04-23T12:46:05.588Z,62.58
2023-04-23T12:47:05.588Z,60.50
2023-04-23T12:48:05.564Z,58.13
2023-04-23T12:49:05.542Z,59.00
2023-04-23T12:50:05.530Z,57.22
2023-04-23T12:51:05.524Z,59.43
2023-04-23T12:52:05.503Z,61.66
2023-04-23T12:53:05.493Z,59.00